Nasudden, Sweden

8:23 AM CEST on August 29, 2014 (GMT +0200)
Visby | Change Station
CLOSE
Current Station
Airport
Location: Visby Flygplats,
Elevation: 154 ft
Nearby Weather Stations

Elev 154 ft 57.66 °N, 18.35 °E | Updated 33 minutes ago

Scattered Clouds
Scattered Clouds
57 °F
Feels Like 57 °F
N
10
Wind Variable Wind from North

Today
High -- | Low -- °F
--% Chance of Precip.
Yesterday
High -- | Low -- °F
Precip. -- in
5:42 AM 7:52 PM
Waxing Crescent, 12% visible
Pressure 29.98 in
Visibility 6.2 miles
Clouds Scattered Clouds 1200 ft
Dew Point 55 °F
Humidity 94%
Rainfall 0.00 in
Snow Depth Not available.
UV 1 out of 12
Pollen Not available.
Air Quality Not available.
Flu Activity Not available.
METAR ESSV 290550Z 35009KT 9999 SCT012 14/13 Q1015

More Conditions Fewer Conditions

Pressure 29.98 in
Visibility 6.2 miles
Clouds Scattered Clouds 1200 ft
Dew Point 55 °F
Humidity 94%
Rainfall 0.00 in
Snow Depth Not available.
UV 1 out of 12
Pollen Not available.
Air Quality Not available.
Flu Activity Not available.
METAR ESSV 290550Z 35009KT 9999 SCT012 14/13 Q1015

More Conditions Fewer Conditions

10-Day Weather Forecast

Almanac

Astronomy

Aug. 29, 2014 Rise Set
Actual Time 5:42 AM CEST 7:52 PM CEST
Civil Twilight 5:00 AM CEST 8:33 PM CEST
Nautical Twilight 4:07 AM CEST 9:26 PM CEST
Astronomical Twilight 3:02 AM CEST 10:30 PM CEST
Moon 10:05 AM CEST 8:45 PM CEST
Length of Visible Light 15h 32m
Length of Day
14h 09m
Tomorrow will be 4m 44s shorter.
Waxing Crescent, 12% of the Moon is Illuminated
Today
Waxing Crescent
Sep 2
First Quarter
Sep 8
Full
Sep 15
Last Quarter
Sep 24
New

Yesterday's Extremes

Country Highs Country Lows

Community

WunderPhotos

Upload Photos

1,748,197 photos uploaded!

Nearby

Snow Depth

Not available.

Earthquake Activity

City Distance Mag. Time & Date
No recent earthquake activity has been reported nearby.
Minimum magnitude displayed is 2.5.

Coastal Water Temperatures

Place Temperature
No Stations Reporting

Nearby Weather Stations